sensor_id;sensor_type;location;lat;lon;timestamp;pressure;altitude;pressure_sealevel;temperature;humidity
41515;BME280;27247;48.020;16.720;2023-03-25T00:00:39;99171.97;;;12.71;91.14
41515;BME280;27247;48.020;16.720;2023-03-25T00:04:51;99167.00;;;12.74;88.65
41515;BME280;27247;48.020;16.720;2023-03-25T00:09:02;99168.88;;;12.67;86.23
41515;BME280;27247;48.020;16.720;2023-03-25T00:13:13;99157.94;;;12.62;84.81
41515;BME280;27247;48.020;16.720;2023-03-25T00:17:25;99150.31;;;12.72;83.31
41515;BME280;27247;48.020;16.720;2023-03-25T00:21:38;99139.78;;;12.77;82.19
41515;BME280;27247;48.020;16.720;2023-03-25T00:25:49;99135.88;;;12.80;82.63
41515;BME280;27247;48.020;16.720;2023-03-25T00:30:02;99144.53;;;12.75;82.20
41515;BME280;27247;48.020;16.720;2023-03-25T00:34:12;99135.66;;;12.68;81.71
41515;BME280;27247;48.020;16.720;2023-03-25T00:38:28;99129.47;;;12.68;82.19
41515;BME280;27247;48.020;16.720;2023-03-25T00:42:43;99139.59;;;12.59;81.97
41515;BME280;27247;48.020;16.720;2023-03-25T00:46:53;99124.75;;;12.63;81.09
41515;BME280;27247;48.020;16.720;2023-03-25T00:51:04;99128.44;;;12.62;81.12
41515;BME280;27247;48.020;16.720;2023-03-25T00:55:19;99135.66;;;12.62;80.71
41515;BME280;27247;48.020;16.720;2023-03-25T00:59:30;99135.66;;;12.62;80.78
41515;BME280;27247;48.020;16.720;2023-03-25T01:03:40;99134.44;;;12.58;80.39
41515;BME280;27247;48.020;16.720;2023-03-25T01:07:52;99137.31;;;12.56;80.57
41515;BME280;27247;48.020;16.720;2023-03-25T01:12:04;99134.44;;;12.51;81.59
41515;BME280;27247;48.020;16.720;2023-03-25T01:16:15;99143.66;;;12.42;81.05
41515;BME280;27247;48.020;16.720;2023-03-25T01:20:25;99147.78;;;12.44;80.67
41515;BME280;27247;48.020;16.720;2023-03-25T01:24:36;99139.34;;;12.41;80.63
41515;BME280;27247;48.020;16.720;2023-03-25T01:28:46;99138.50;;;12.40;81.15
41515;BME280;27247;48.020;16.720;2023-03-25T01:32:57;99132.94;;;12.42;81.17
41515;BME280;27247;48.020;16.720;2023-03-25T01:37:08;99134.81;;;12.41;80.19
41515;BME280;27247;48.020;16.720;2023-03-25T01:41:19;99137.47;;;12.35;80.16
41515;BME280;27247;48.020;16.720;2023-03-25T01:45:30;99136.22;;;12.24;80.26
41515;BME280;27247;48.020;16.720;2023-03-25T01:49:45;99128.19;;;12.24;79.41
41515;BME280;27247;48.020;16.720;2023-03-25T01:53:56;99131.28;;;12.28;79.39
41515;BME280;27247;48.020;16.720;2023-03-25T01:58:10;99132.31;;;12.33;78.66
41515;BME280;27247;48.020;16.720;2023-03-25T02:02:22;99141.16;;;12.27;78.43
41515;BME280;27247;48.020;16.720;2023-03-25T02:06:48;99135.59;;;12.15;79.78
41515;BME280;27247;48.020;16.720;2023-03-25T02:11:06;99144.84;;;12.06;80.72
41515;BME280;27247;48.020;16.720;2023-03-25T02:15:18;99149.75;;;11.96;81.51
41515;BME280;27247;48.020;16.720;2023-03-25T02:28:54;99132.81;;;11.82;82.11
41515;BME280;27247;48.020;16.720;2023-03-25T02:46:42;99143.34;;;11.84;81.55
41515;BME280;27247;48.020;16.720;2023-03-25T02:50:56;99134.69;;;11.82;82.79
41515;BME280;27247;48.020;16.720;2023-03-25T02:55:09;99136.13;;;11.85;82.59
41515;BME280;27247;48.020;16.720;2023-03-25T02:59:23;99134.06;;;11.80;82.34
41515;BME280;27247;48.020;16.720;2023-03-25T03:03:35;99139.19;;;11.81;82.41
41515;BME280;27247;48.020;16.720;2023-03-25T03:07:48;99134.41;;;11.77;82.98
41515;BME280;27247;48.020;16.720;2023-03-25T03:12:14;99122.72;;;11.78;83.24
41515;BME280;27247;48.020;16.720;2023-03-25T03:21:25;99138.09;;;11.69;84.78
41515;BME280;27247;48.020;16.720;2023-03-25T03:26:07;99152.28;;;11.63;85.50
41515;BME280;27247;48.020;16.720;2023-03-25T03:34:51;99137.00;;;11.50;84.28
41515;BME280;27247;48.020;16.720;2023-03-25T03:39:12;99145.41;;;11.47;84.89
41515;BME280;27247;48.020;16.720;2023-03-25T03:43:29;99150.50;;;11.42;85.30
41515;BME280;27247;48.020;16.720;2023-03-25T03:47:46;99157.28;;;11.38;85.80
41515;BME280;27247;48.020;16.720;2023-03-25T03:52:07;99157.88;;;11.34;86.92
41515;BME280;27247;48.020;16.720;2023-03-25T03:56:23;99165.03;;;11.27;86.68
41515;BME280;27247;48.020;16.720;2023-03-25T04:00:41;99166.25;;;11.24;86.96
41515;BME280;27247;48.020;16.720;2023-03-25T04:04:53;99163.56;;;11.24;86.52
41515;BME280;27247;48.020;16.720;2023-03-25T04:09:12;99160.88;;;11.24;85.54
41515;BME280;27247;48.020;16.720;2023-03-25T04:13:32;99167.69;;;11.27;85.56
41515;BME280;27247;48.020;16.720;2023-03-25T04:17:44;99169.78;;;11.31;85.88
41515;BME280;27247;48.020;16.720;2023-03-25T04:21:54;99173.28;;;11.32;85.51
41515;BME280;27247;48.020;16.720;2023-03-25T04:26:05;99174.88;;;11.26;86.14
41515;BME280;27247;48.020;16.720;2023-03-25T04:30:15;99182.09;;;11.26;85.77
41515;BME280;27247;48.020;16.720;2023-03-25T04:34:28;99187.84;;;11.23;85.39
41515;BME280;27247;48.020;16.720;2023-03-25T04:38:39;99182.03;;;11.19;85.44
41515;BME280;27247;48.020;16.720;2023-03-25T04:42:50;99190.66;;;11.14;85.83
41515;BME280;27247;48.020;16.720;2023-03-25T04:47:02;99193.09;;;11.09;86.30
41515;BME280;27247;48.020;16.720;2023-03-25T04:51:13;99185.47;;;11.06;86.65
41515;BME280;27247;48.020;16.720;2023-03-25T04:55:25;99197.56;;;11.02;87.00
41515;BME280;27247;48.020;16.720;2023-03-25T04:59:36;99201.44;;;11.00;85.98
41515;BME280;27247;48.020;16.720;2023-03-25T05:03:46;99213.78;;;11.01;86.18
41515;BME280;27247;48.020;16.720;2023-03-25T05:07:59;99223.66;;;11.00;86.33
41515;BME280;27247;48.020;16.720;2023-03-25T05:12:10;99230.47;;;11.03;85.83
41515;BME280;27247;48.020;16.720;2023-03-25T05:16:21;99223.09;;;11.05;85.60
41515;BME280;27247;48.020;16.720;2023-03-25T05:20:31;99224.09;;;11.04;85.52
41515;BME280;27247;48.020;16.720;2023-03-25T05:24:44;99227.78;;;11.03;86.73
41515;BME280;27247;48.020;16.720;2023-03-25T05:28:54;99233.53;;;11.00;87.13
41515;BME280;27247;48.020;16.720;2023-03-25T05:33:09;99241.69;;;10.92;88.06
41515;BME280;27247;48.020;16.720;2023-03-25T05:37:20;99234.63;;;10.84;88.64
41515;BME280;27247;48.020;16.720;2023-03-25T05:41:30;99237.94;;;10.86;87.71
41515;BME280;27247;48.020;16.720;2023-03-25T05:45:48;99247.84;;;10.92;86.03
41515;BME280;27247;48.020;16.720;2023-03-25T05:49:59;99246.97;;;10.85;86.38
41515;BME280;27247;48.020;16.720;2023-03-25T05:54:09;99237.75;;;10.87;86.30
41515;BME280;27247;48.020;16.720;2023-03-25T05:58:20;99247.03;;;10.92;85.23
41515;BME280;27247;48.020;16.720;2023-03-25T06:02:30;99250.97;;;10.96;85.42
41515;BME280;27247;48.020;16.720;2023-03-25T06:06:42;99241.09;;;10.96;86.03
41515;BME280;27247;48.020;16.720;2023-03-25T06:10:54;99264.97;;;10.98;85.52
41515;BME280;27247;48.020;16.720;2023-03-25T06:15:08;99266.44;;;11.00;84.50
41515;BME280;27247;48.020;16.720;2023-03-25T06:19:18;99266.88;;;11.04;84.30
41515;BME280;27247;48.020;16.720;2023-03-25T06:23:30;99270.06;;;11.14;84.62
41515;BME280;27247;48.020;16.720;2023-03-25T06:27:46;99272.50;;;11.37;84.11
41515;BME280;27247;48.020;16.720;2023-03-25T06:31:57;99262.03;;;11.70;83.86
41515;BME280;27247;48.020;16.720;2023-03-25T06:36:08;99270.69;;;12.00;84.11
41515;BME280;27247;48.020;16.720;2023-03-25T06:40:18;99266.09;;;12.35;82.50
41515;BME280;27247;48.020;16.720;2023-03-25T06:44:29;99267.84;;;12.62;80.11
41515;BME280;27247;48.020;16.720;2023-03-25T06:48:40;99262.28;;;12.77;77.52
41515;BME280;27247;48.020;16.720;2023-03-25T06:52:50;99260.44;;;12.84;77.06
41515;BME280;27247;48.020;16.720;2023-03-25T06:57:00;99255.69;;;12.79;76.31
41515;BME280;27247;48.020;16.720;2023-03-25T07:01:11;99265.34;;;12.61;75.21
41515;BME280;27247;48.020;16.720;2023-03-25T07:05:21;99266.59;;;12.58;75.85
41515;BME280;27247;48.020;16.720;2023-03-25T07:09:31;99260.59;;;12.56;74.54
41515;BME280;27247;48.020;16.720;2023-03-25T07:13:42;99254.63;;;12.54;74.41
41515;BME280;27247;48.020;16.720;2023-03-25T07:17:52;99257.94;;;12.63;75.27
41515;BME280;27247;48.020;16.720;2023-03-25T07:22:04;99252.19;;;12.72;75.73
41515;BME280;27247;48.020;16.720;2023-03-25T07:26:14;99239.41;;;12.88;73.53
41515;BME280;27247;48.020;16.720;2023-03-25T07:30:25;99225.59;;;13.10;72.60
41515;BME280;27247;48.020;16.720;2023-03-25T07:34:35;99216.75;;;13.30;71.77
41515;BME280;27247;48.020;16.720;2023-03-25T07:38:47;99213.22;;;13.42;70.86
41515;BME280;27247;48.020;16.720;2023-03-25T07:42:57;99221.25;;;13.42;70.70
41515;BME280;27247;48.020;16.720;2023-03-25T07:47:08;99223.13;;;13.55;70.54
41515;BME280;27247;48.020;16.720;2023-03-25T07:51:18;99226.81;;;13.61;68.69
41515;BME280;27247;48.020;16.720;2023-03-25T07:55:28;99235.47;;;13.76;69.51
41515;BME280;27247;48.020;16.720;2023-03-25T07:59:39;99236.88;;;13.92;67.27
41515;BME280;27247;48.020;16.720;2023-03-25T08:03:49;99220.72;;;13.98;66.93
41515;BME280;27247;48.020;16.720;2023-03-25T08:08:00;99226.84;;;14.19;68.08
41515;BME280;27247;48.020;16.720;2023-03-25T08:12:10;99216.00;;;14.32;66.18
41515;BME280;27247;48.020;16.720;2023-03-25T08:16:20;99243.28;;;14.35;65.83
41515;BME280;27247;48.020;16.720;2023-03-25T08:20:34;99243.09;;;14.30;66.48
41515;BME280;27247;48.020;16.720;2023-03-25T08:24:45;99240.44;;;14.24;64.43
41515;BME280;27247;48.020;16.720;2023-03-25T08:28:56;99254.97;;;14.16;66.19
41515;BME280;27247;48.020;16.720;2023-03-25T08:33:07;99252.56;;;13.95;64.96
41515;BME280;27247;48.020;16.720;2023-03-25T08:37:19;99253.81;;;13.92;65.44
41515;BME280;27247;48.020;16.720;2023-03-25T08:41:30;99252.19;;;13.78;65.85
41515;BME280;27247;48.020;16.720;2023-03-25T08:45:41;99233.03;;;13.61;64.04
41515;BME280;27247;48.020;16.720;2023-03-25T08:49:51;99241.50;;;13.58;64.64
41515;BME280;27247;48.020;16.720;2023-03-25T08:54:01;99253.25;;;13.64;65.50
41515;BME280;27247;48.020;16.720;2023-03-25T08:58:12;99263.97;;;13.70;65.09
41515;BME280;27247;48.020;16.720;2023-03-25T09:02:22;99260.06;;;13.73;65.39
41515;BME280;27247;48.020;16.720;2023-03-25T09:06:33;99275.53;;;13.84;66.24
41515;BME280;27247;48.020;16.720;2023-03-25T09:10:43;99272.81;;;13.91;63.59
41515;BME280;27247;48.020;16.720;2023-03-25T09:14:53;99273.44;;;13.93;63.76
41515;BME280;27247;48.020;16.720;2023-03-25T09:19:04;99273.84;;;13.96;63.96
41515;BME280;27247;48.020;16.720;2023-03-25T09:23:14;99285.81;;;13.94;63.83
41515;BME280;27247;48.020;16.720;2023-03-25T09:27:25;99274.72;;;13.77;64.26
41515;BME280;27247;48.020;16.720;2023-03-25T09:31:35;99273.91;;;13.70;64.11
41515;BME280;27247;48.020;16.720;2023-03-25T09:35:47;99274.53;;;13.65;65.71
41515;BME280;27247;48.020;16.720;2023-03-25T09:39:57;99265.03;;;13.63;64.12
41515;BME280;27247;48.020;16.720;2023-03-25T09:48:54;99255.13;;;13.63;64.44
41515;BME280;27247;48.020;16.720;2023-03-25T09:57:46;99259.25;;;13.59;63.02
41515;BME280;27247;48.020;16.720;2023-03-25T10:06:42;99271.25;;;13.57;63.55
41515;BME280;27247;48.020;16.720;2023-03-25T10:11:04;99258.81;;;13.49;62.60
41515;BME280;27247;48.020;16.720;2023-03-25T10:24:20;99246.88;;;13.58;62.10
41515;BME280;27247;48.020;16.720;2023-03-25T10:28:37;99236.53;;;13.62;62.67
41515;BME280;27247;48.020;16.720;2023-03-25T10:32:55;99253.06;;;13.59;61.51
41515;BME280;27247;48.020;16.720;2023-03-25T10:37:10;99248.53;;;13.59;61.78
41515;BME280;27247;48.020;16.720;2023-03-25T10:41:26;99263.81;;;13.59;61.87
41515;BME280;27247;48.020;16.720;2023-03-25T10:45:41;99259.25;;;13.59;63.16
41515;BME280;27247;48.020;16.720;2023-03-25T10:49:53;99265.25;;;13.55;61.87
41515;BME280;27247;48.020;16.720;2023-03-25T10:54:04;99272.69;;;13.59;62.90
41515;BME280;27247;48.020;16.720;2023-03-25T10:58:16;99283.41;;;13.46;61.31
41515;BME280;27247;48.020;16.720;2023-03-25T11:02:29;99297.84;;;13.38;61.75
41515;BME280;27247;48.020;16.720;2023-03-25T11:06:43;99304.66;;;13.34;58.87
41515;BME280;27247;48.020;16.720;2023-03-25T11:10:55;99315.81;;;13.25;57.79
41515;BME280;27247;48.020;16.720;2023-03-25T11:15:11;99314.16;;;13.37;59.09
41515;BME280;27247;48.020;16.720;2023-03-25T11:19:56;99314.78;;;13.46;58.07
41515;BME280;27247;48.020;16.720;2023-03-25T11:23:59;99305.28;;;13.43;58.75
41515;BME280;27247;48.020;16.720;2023-03-25T11:28:14;99300.13;;;13.41;58.86
41515;BME280;27247;48.020;16.720;2023-03-25T11:32:35;99264.41;;;13.48;58.00
41515;BME280;27247;48.020;16.720;2023-03-25T11:36:59;99272.69;;;13.53;57.11
41515;BME280;27247;48.020;16.720;2023-03-25T11:41:12;99255.97;;;13.57;56.69
41515;BME280;27247;48.020;16.720;2023-03-25T11:45:27;99256.97;;;13.69;56.93
41515;BME280;27247;48.020;16.720;2023-03-25T11:49:41;99227.00;;;13.79;56.37
41515;BME280;27247;48.020;16.720;2023-03-25T11:54:01;99241.84;;;13.88;56.09
41515;BME280;27247;48.020;16.720;2023-03-25T11:58:17;99246.16;;;13.89;56.26
41515;BME280;27247;48.020;16.720;2023-03-25T12:02:29;99228.59;;;13.93;56.01
41515;BME280;27247;48.020;16.720;2023-03-25T12:07:05;99228.94;;;14.10;56.87
41515;BME280;27247;48.020;16.720;2023-03-25T12:16:23;99209.13;;;14.49;54.86
41515;BME280;27247;48.020;16.720;2023-03-25T12:25:24;99203.31;;;14.84;54.55
41515;BME280;27247;48.020;16.720;2023-03-25T12:43:01;99203.41;;;15.45;53.19
41515;BME280;27247;48.020;16.720;2023-03-25T12:47:21;99194.81;;;15.55;52.27
41515;BME280;27247;48.020;16.720;2023-03-25T13:04:46;99176.03;;;15.48;51.87
41515;BME280;27247;48.020;16.720;2023-03-25T13:09:16;99166.22;;;15.54;51.17
41515;BME280;27247;48.020;16.720;2023-03-25T13:13:30;99173.47;;;15.53;50.81
41515;BME280;27247;48.020;16.720;2023-03-25T13:18:04;99158.97;;;15.61;50.83
41515;BME280;27247;48.020;16.720;2023-03-25T13:22:23;99160.91;;;15.72;50.28
41515;BME280;27247;48.020;16.720;2023-03-25T13:26:35;99155.06;;;15.75;49.71
41515;BME280;27247;48.020;16.720;2023-03-25T13:30:47;99157.59;;;15.88;49.11
41515;BME280;27247;48.020;16.720;2023-03-25T13:35:26;99145.09;;;16.24;48.48
41515;BME280;27247;48.020;16.720;2023-03-25T13:40:36;99140.09;;;16.69;46.89
41515;BME280;27247;48.020;16.720;2023-03-25T13:44:30;99127.78;;;16.73;46.22
41515;BME280;27247;48.020;16.720;2023-03-25T13:57:58;99140.25;;;17.09;45.33
41515;BME280;27247;48.020;16.720;2023-03-25T14:11:29;99132.72;;;17.35;44.16
41515;BME280;27247;48.020;16.720;2023-03-25T14:16:05;99124.50;;;17.18;44.38
41515;BME280;27247;48.020;16.720;2023-03-25T14:20:27;99139.53;;;16.79;44.66
41515;BME280;27247;48.020;16.720;2023-03-25T14:24:41;99122.63;;;16.42;46.01
41515;BME280;27247;48.020;16.720;2023-03-25T14:28:53;99134.50;;;16.11;45.31
41515;BME280;27247;48.020;16.720;2023-03-25T14:33:08;99116.94;;;15.90;46.34
41515;BME280;27247;48.020;16.720;2023-03-25T14:37:24;99123.53;;;16.24;46.18
41515;BME280;27247;48.020;16.720;2023-03-25T14:54:32;99109.63;;;17.04;43.77
41515;BME280;27247;48.020;16.720;2023-03-25T14:58:45;99107.88;;;16.56;44.48
41515;BME280;27247;48.020;16.720;2023-03-25T15:03:07;99108.41;;;16.65;46.03
41515;BME280;27247;48.020;16.720;2023-03-25T15:12:08;99109.38;;;16.70;45.80
41515;BME280;27247;48.020;16.720;2023-03-25T15:20:48;99096.81;;;15.92;47.13
41515;BME280;27247;48.020;16.720;2023-03-25T15:24:59;99087.34;;;16.02;46.94
41515;BME280;27247;48.020;16.720;2023-03-25T15:33:56;99090.41;;;15.75;48.52
41515;BME280;27247;48.020;16.720;2023-03-25T15:42:44;99090.00;;;15.53;48.80
41515;BME280;27247;48.020;16.720;2023-03-25T15:56:15;99082.63;;;15.67;49.90
41515;BME280;27247;48.020;16.720;2023-03-25T16:00:33;99085.97;;;15.81;50.58
41515;BME280;27247;48.020;16.720;2023-03-25T16:04:48;99086.13;;;15.49;49.70
41515;BME280;27247;48.020;16.720;2023-03-25T16:09:00;99091.56;;;15.06;51.41
41515;BME280;27247;48.020;16.720;2023-03-25T16:13:14;99085.09;;;14.71;52.35
41515;BME280;27247;48.020;16.720;2023-03-25T16:17:33;99091.28;;;14.39;52.66
41515;BME280;27247;48.020;16.720;2023-03-25T16:21:47;99100.75;;;14.17;53.36
41515;BME280;27247;48.020;16.720;2023-03-25T16:25:58;99098.78;;;13.99;54.14
41515;BME280;27247;48.020;16.720;2023-03-25T16:30:31;99119.16;;;13.76;54.39
41515;BME280;27247;48.020;16.720;2023-03-25T16:34:42;99124.56;;;13.69;54.38
41515;BME280;27247;48.020;16.720;2023-03-25T16:38:53;99126.25;;;13.63;53.85
41515;BME280;27247;48.020;16.720;2023-03-25T16:43:05;99133.72;;;13.55;53.37
41515;BME280;27247;48.020;16.720;2023-03-25T16:47:17;99139.75;;;13.10;55.45
41515;BME280;27247;48.020;16.720;2023-03-25T16:51:28;99127.81;;;12.93;56.30
41515;BME280;27247;48.020;16.720;2023-03-25T16:55:46;99135.88;;;12.73;57.80
41515;BME280;27247;48.020;16.720;2023-03-25T17:00:21;99136.50;;;12.82;56.43
41515;BME280;27247;48.020;16.720;2023-03-25T17:04:38;99140.00;;;12.83;56.59
41515;BME280;27247;48.020;16.720;2023-03-25T17:08:53;99160.22;;;12.78;56.96
41515;BME280;27247;48.020;16.720;2023-03-25T17:13:08;99191.13;;;12.68;57.36
41515;BME280;27247;48.020;16.720;2023-03-25T17:17:41;99232.91;;;12.42;59.84
41515;BME280;27247;48.020;16.720;2023-03-25T17:22:12;99239.84;;;12.17;62.57
41515;BME280;27247;48.020;16.720;2023-03-25T17:26:32;99261.41;;;11.68;67.12
41515;BME280;27247;48.020;16.720;2023-03-25T17:30:45;99299.22;;;11.58;65.75
41515;BME280;27247;48.020;16.720;2023-03-25T17:35:05;99343.31;;;11.41;65.74
41515;BME280;27247;48.020;16.720;2023-03-25T17:39:21;99346.97;;;11.12;68.37
41515;BME280;27247;48.020;16.720;2023-03-25T17:43:34;99332.81;;;10.75;74.89
41515;BME280;27247;48.020;16.720;2023-03-25T17:47:46;99338.22;;;10.46;77.54
41515;BME280;27247;48.020;16.720;2023-03-25T17:51:56;99349.75;;;10.32;78.36
41515;BME280;27247;48.020;16.720;2023-03-25T17:56:12;99352.97;;;10.27;77.08
41515;BME280;27247;48.020;16.720;2023-03-25T18:00:25;99358.13;;;10.29;76.78
41515;BME280;27247;48.020;16.720;2023-03-25T18:04:37;99369.50;;;10.08;77.45
41515;BME280;27247;48.020;16.720;2023-03-25T18:08:48;99363.53;;;10.06;77.20
41515;BME280;27247;48.020;16.720;2023-03-25T18:12:58;99368.59;;;10.15;78.43
41515;BME280;27247;48.020;16.720;2023-03-25T18:17:12;99378.91;;;10.18;79.69
41515;BME280;27247;48.020;16.720;2023-03-25T18:21:23;99380.75;;;10.03;81.57
41515;BME280;27247;48.020;16.720;2023-03-25T18:25:34;99374.22;;;9.53;82.93
41515;BME280;27247;48.020;16.720;2023-03-25T18:29:44;99352.69;;;9.40;82.40
41515;BME280;27247;48.020;16.720;2023-03-25T18:33:55;99364.22;;;9.33;81.43
41515;BME280;27247;48.020;16.720;2023-03-25T18:38:23;99366.69;;;9.34;80.56
41515;BME280;27247;48.020;16.720;2023-03-25T18:42:35;99375.28;;;8.99;82.78
41515;BME280;27247;48.020;16.720;2023-03-25T18:46:46;99377.91;;;9.07;82.48
41515;BME280;27247;48.020;16.720;2023-03-25T18:50:58;99374.28;;;9.00;82.71
41515;BME280;27247;48.020;16.720;2023-03-25T18:55:09;99371.63;;;9.00;82.29
41515;BME280;27247;48.020;16.720;2023-03-25T18:59:20;99370.91;;;9.06;81.51
41515;BME280;27247;48.020;16.720;2023-03-25T19:03:31;99356.75;;;9.05;82.27
41515;BME280;27247;48.020;16.720;2023-03-25T19:07:51;99369.97;;;8.99;82.85
41515;BME280;27247;48.020;16.720;2023-03-25T19:12:02;99374.16;;;8.93;81.71
41515;BME280;27247;48.020;16.720;2023-03-25T19:16:13;99349.16;;;8.94;81.02
41515;BME280;27247;48.020;16.720;2023-03-25T19:20:25;99361.31;;;8.96;80.56
41515;BME280;27247;48.020;16.720;2023-03-25T19:24:36;99369.00;;;8.91;80.69
41515;BME280;27247;48.020;16.720;2023-03-25T19:28:47;99385.16;;;8.90;80.47
41515;BME280;27247;48.020;16.720;2023-03-25T19:32:58;99375.75;;;8.79;81.22
41515;BME280;27247;48.020;16.720;2023-03-25T19:37:11;99367.63;;;8.73;80.65
41515;BME280;27247;48.020;16.720;2023-03-25T19:41:23;99376.66;;;8.63;81.18
41515;BME280;27247;48.020;16.720;2023-03-25T19:45:34;99380.16;;;8.64;81.05
41515;BME280;27247;48.020;16.720;2023-03-25T19:49:45;99388.84;;;8.58;81.23
41515;BME280;27247;48.020;16.720;2023-03-25T19:53:55;99395.53;;;8.54;80.69
41515;BME280;27247;48.020;16.720;2023-03-25T19:58:07;99381.91;;;8.49;80.52
41515;BME280;27247;48.020;16.720;2023-03-25T20:02:17;99395.56;;;8.46;79.96
41515;BME280;27247;48.020;16.720;2023-03-25T20:06:29;99382.72;;;8.49;79.91
41515;BME280;27247;48.020;16.720;2023-03-25T20:10:40;99376.22;;;8.52;79.17
41515;BME280;27247;48.020;16.720;2023-03-25T20:14:54;99367.75;;;8.48;79.91
41515;BME280;27247;48.020;16.720;2023-03-25T20:19:05;99365.44;;;8.45;79.24
41515;BME280;27247;48.020;16.720;2023-03-25T20:23:15;99378.56;;;8.47;79.00
41515;BME280;27247;48.020;16.720;2023-03-25T20:27:27;99375.75;;;8.48;77.70
41515;BME280;27247;48.020;16.720;2023-03-25T20:31:38;99369.91;;;8.53;77.83
41515;BME280;27247;48.020;16.720;2023-03-25T20:35:49;99377.75;;;8.46;76.76
41515;BME280;27247;48.020;16.720;2023-03-25T20:40:00;99376.44;;;8.42;77.83
41515;BME280;27247;48.020;16.720;2023-03-25T20:44:11;99388.09;;;8.41;78.47
41515;BME280;27247;48.020;16.720;2023-03-25T20:48:22;99374.13;;;8.39;79.57
41515;BME280;27247;48.020;16.720;2023-03-25T20:52:34;99376.28;;;8.36;80.22
41515;BME280;27247;48.020;16.720;2023-03-25T20:56:45;99380.25;;;8.31;80.75
41515;BME280;27247;48.020;16.720;2023-03-25T21:00:58;99371.94;;;8.26;81.00
41515;BME280;27247;48.020;16.720;2023-03-25T21:05:09;99376.13;;;8.21;80.86
41515;BME280;27247;48.020;16.720;2023-03-25T21:09:20;99381.97;;;8.16;80.38
41515;BME280;27247;48.020;16.720;2023-03-25T21:13:31;99379.97;;;8.10;80.80
41515;BME280;27247;48.020;16.720;2023-03-25T21:17:42;99386.53;;;7.91;81.13
41515;BME280;27247;48.020;16.720;2023-03-25T21:21:53;99402.69;;;7.49;82.28
41515;BME280;27247;48.020;16.720;2023-03-25T21:26:04;99419.63;;;7.56;82.07
41515;BME280;27247;48.020;16.720;2023-03-25T21:30:18;99412.16;;;7.60;81.11
41515;BME280;27247;48.020;16.720;2023-03-25T21:34:29;99414.50;;;7.55;81.11
41515;BME280;27247;48.020;16.720;2023-03-25T21:38:41;99414.16;;;7.58;79.93
41515;BME280;27247;48.020;16.720;2023-03-25T21:42:51;99404.34;;;7.66;80.11
41515;BME280;27247;48.020;16.720;2023-03-25T21:47:02;99405.97;;;7.84;78.73
41515;BME280;27247;48.020;16.720;2023-03-25T21:51:17;99383.72;;;7.77;78.41
41515;BME280;27247;48.020;16.720;2023-03-25T21:55:29;99380.03;;;7.94;77.20
41515;BME280;27247;48.020;16.720;2023-03-25T21:59:39;99381.19;;;7.91;77.06
41515;BME280;27247;48.020;16.720;2023-03-25T22:03:50;99384.03;;;7.82;77.46
41515;BME280;27247;48.020;16.720;2023-03-25T22:08:04;99393.03;;;7.81;77.05
41515;BME280;27247;48.020;16.720;2023-03-25T22:12:15;99398.69;;;7.61;77.48
41515;BME280;27247;48.020;16.720;2023-03-25T22:16:26;99394.06;;;7.47;78.82
41515;BME280;27247;48.020;16.720;2023-03-25T22:20:36;99384.25;;;7.40;79.16
41515;BME280;27247;48.020;16.720;2023-03-25T22:24:47;99389.25;;;7.43;78.39
41515;BME280;27247;48.020;16.720;2023-03-25T22:29:00;99389.91;;;7.45;79.03
41515;BME280;27247;48.020;16.720;2023-03-25T22:33:11;99381.25;;;7.51;78.41
41515;BME280;27247;48.020;16.720;2023-03-25T22:37:21;99385.91;;;7.57;79.30
41515;BME280;27247;48.020;16.720;2023-03-25T22:41:32;99390.91;;;7.52;79.79
41515;BME280;27247;48.020;16.720;2023-03-25T22:45:42;99391.72;;;7.44;79.86
41515;BME280;27247;48.020;16.720;2023-03-25T22:49:53;99392.41;;;7.46;80.52
41515;BME280;27247;48.020;16.720;2023-03-25T22:54:03;99382.25;;;7.33;81.32
41515;BME280;27247;48.020;16.720;2023-03-25T22:58:14;99383.22;;;7.24;80.59
41515;BME280;27247;48.020;16.720;2023-03-25T23:02:25;99384.09;;;7.33;80.95
41515;BME280;27247;48.020;16.720;2023-03-25T23:06:36;99388.75;;;7.31;81.02
41515;BME280;27247;48.020;16.720;2023-03-25T23:10:46;99382.91;;;7.27;80.55
41515;BME280;27247;48.020;16.720;2023-03-25T23:14:57;99387.69;;;7.16;81.43
41515;BME280;27247;48.020;16.720;2023-03-25T23:19:07;99386.88;;;7.07;81.34
41515;BME280;27247;48.020;16.720;2023-03-25T23:23:20;99377.72;;;7.01;81.67
41515;BME280;27247;48.020;16.720;2023-03-25T23:27:33;99374.25;;;7.01;81.22
41515;BME280;27247;48.020;16.720;2023-03-25T23:31:44;99374.06;;;7.02;81.15
41515;BME280;27247;48.020;16.720;2023-03-25T23:35:58;99369.59;;;7.03;81.10
41515;BME280;27247;48.020;16.720;2023-03-25T23:40:10;99368.59;;;7.04;80.35
41515;BME280;27247;48.020;16.720;2023-03-25T23:44:21;99366.59;;;6.98;81.38
41515;BME280;27247;48.020;16.720;2023-03-25T23:48:32;99363.28;;;6.96;80.69
41515;BME280;27247;48.020;16.720;2023-03-25T23:52:50;99348.34;;;7.03;80.54
41515;BME280;27247;48.020;16.720;2023-03-25T23:57:00;99352.16;;;7.09;79.89
